sensor_id;sensor_type;location;lat;lon;timestamp;pressure;altitude;pressure_sealevel;temperature;humidity
21300;BME280;10809;49.476;11.016;2024-03-23T00:54:40;97523.63;;;11.58;46.81
21300;BME280;10809;49.476;11.016;2024-03-23T00:57:11;97519.41;;;11.55;46.69
21300;BME280;10809;49.476;11.016;2024-03-23T00:59:41;97519.72;;;11.51;46.88
21300;BME280;10809;49.476;11.016;2024-03-23T01:02:11;97502.34;;;11.47;46.94
21300;BME280;10809;49.476;11.016;2024-03-23T01:04:42;97493.78;;;11.43;46.50
21300;BME280;10809;49.476;11.016;2024-03-23T01:07:12;97484.22;;;11.41;46.94
21300;BME280;10809;49.476;11.016;2024-03-23T01:09:49;97492.41;;;11.38;46.83
21300;BME280;10809;49.476;11.016;2024-03-23T01:12:19;97487.31;;;11.35;47.10
21300;BME280;10809;49.476;11.016;2024-03-23T01:14:49;97498.13;;;11.32;47.15
21300;BME280;10809;49.476;11.016;2024-03-23T01:17:20;97486.78;;;11.29;47.08
21300;BME280;10809;49.476;11.016;2024-03-23T01:19:50;97483.41;;;11.27;47.24
21300;BME280;10809;49.476;11.016;2024-03-23T01:22:21;97479.06;;;11.26;47.03
21300;BME280;10809;49.476;11.016;2024-03-23T01:24:51;97475.69;;;11.24;47.40
21300;BME280;10809;49.476;11.016;2024-03-23T01:27:22;97481.81;;;11.25;47.24
21300;BME280;10809;49.476;11.016;2024-03-23T01:29:52;97473.13;;;11.23;47.15
21300;BME280;10809;49.476;11.016;2024-03-23T01:32:23;97482.97;;;11.21;47.28
21300;BME280;10809;49.476;11.016;2024-03-23T01:34:59;97478.63;;;11.20;47.03
21300;BME280;10809;49.476;11.016;2024-03-23T01:37:30;97482.34;;;11.17;47.41
21300;BME280;10809;49.476;11.016;2024-03-23T01:40:04;97471.84;;;11.16;47.52
21300;BME280;10809;49.476;11.016;2024-03-23T01:42:34;97470.16;;;11.15;47.68
21300;BME280;10809;49.476;11.016;2024-03-23T01:45:08;97459.66;;;11.13;47.72
21300;BME280;10809;49.476;11.016;2024-03-23T01:47:40;97462.31;;;11.13;47.53
21300;BME280;10809;49.476;11.016;2024-03-23T01:50:10;97448.31;;;11.11;47.62
21300;BME280;10809;49.476;11.016;2024-03-23T01:52:41;97444.84;;;11.11;47.57
21300;BME280;10809;49.476;11.016;2024-03-23T01:55:11;97444.75;;;11.12;47.73
21300;BME280;10809;49.476;11.016;2024-03-23T01:57:42;97437.72;;;11.11;48.01
21300;BME280;10809;49.476;11.016;2024-03-23T02:00:13;97435.06;;;11.11;48.00
21300;BME280;10809;49.476;11.016;2024-03-23T02:02:45;97430.63;;;11.12;47.76
21300;BME280;10809;49.476;11.016;2024-03-23T02:05:15;97432.22;;;11.14;48.10
21300;BME280;10809;49.476;11.016;2024-03-23T02:07:46;97427.66;;;11.16;48.00
21300;BME280;10809;49.476;11.016;2024-03-23T02:10:16;97416.94;;;11.18;47.97
21300;BME280;10809;49.476;11.016;2024-03-23T02:12:50;97417.69;;;11.20;47.97
21300;BME280;10809;49.476;11.016;2024-03-23T02:15:20;97407.81;;;11.22;47.87
21300;BME280;10809;49.476;11.016;2024-03-23T02:17:51;97406.88;;;11.23;48.09
21300;BME280;10809;49.476;11.016;2024-03-23T02:20:21;97403.19;;;11.25;48.21
21300;BME280;10809;49.476;11.016;2024-03-23T02:22:53;97396.09;;;11.26;48.01
21300;BME280;10809;49.476;11.016;2024-03-23T02:25:23;97387.16;;;11.27;48.08
21300;BME280;10809;49.476;11.016;2024-03-23T02:27:54;97378.25;;;11.28;47.94
21300;BME280;10809;49.476;11.016;2024-03-23T02:30:26;97376.44;;;11.28;48.01
21300;BME280;10809;49.476;11.016;2024-03-23T02:32:59;97368.50;;;11.28;48.13
21300;BME280;10809;49.476;11.016;2024-03-23T02:35:30;97359.59;;;11.29;48.18
21300;BME280;10809;49.476;11.016;2024-03-23T02:38:01;97364.88;;;11.29;48.17
21300;BME280;10809;49.476;11.016;2024-03-23T02:40:31;97361.41;;;11.29;48.01
21300;BME280;10809;49.476;11.016;2024-03-23T02:43:05;97358.66;;;11.31;48.01
21300;BME280;10809;49.476;11.016;2024-03-23T02:45:35;97356.94;;;11.29;47.99
21300;BME280;10809;49.476;11.016;2024-03-23T02:48:06;97348.16;;;11.29;48.29
21300;BME280;10809;49.476;11.016;2024-03-23T02:50:37;97346.34;;;11.29;48.25
21300;BME280;10809;49.476;11.016;2024-03-23T02:53:07;97339.34;;;11.28;47.90
21300;BME280;10809;49.476;11.016;2024-03-23T02:55:37;97331.53;;;11.27;48.03
21300;BME280;10809;49.476;11.016;2024-03-23T02:58:08;97330.66;;;11.26;48.09
21300;BME280;10809;49.476;11.016;2024-03-23T03:00:38;97326.34;;;11.25;48.18
21300;BME280;10809;49.476;11.016;2024-03-23T03:03:09;97320.06;;;11.26;48.19
21300;BME280;10809;49.476;11.016;2024-03-23T03:05:39;97312.13;;;11.26;48.33
21300;BME280;10809;49.476;11.016;2024-03-23T03:08:10;97313.94;;;11.26;48.49
21300;BME280;10809;49.476;11.016;2024-03-23T03:10:40;97302.50;;;11.25;48.09
21300;BME280;10809;49.476;11.016;2024-03-23T03:13:11;97306.81;;;11.26;48.59
21300;BME280;10809;49.476;11.016;2024-03-23T03:15:43;97309.47;;;11.26;48.56
21300;BME280;10809;49.476;11.016;2024-03-23T03:18:14;97307.66;;;11.27;48.11
21300;BME280;10809;49.476;11.016;2024-03-23T03:20:44;97310.31;;;11.27;48.51
21300;BME280;10809;49.476;11.016;2024-03-23T03:23:15;97307.66;;;11.27;48.51
21300;BME280;10809;49.476;11.016;2024-03-23T03:25:46;97292.63;;;11.27;48.49
21300;BME280;10809;49.476;11.016;2024-03-23T03:28:16;97285.50;;;11.28;48.32
21300;BME280;10809;49.476;11.016;2024-03-23T03:30:47;97273.22;;;11.27;48.42
21300;BME280;10809;49.476;11.016;2024-03-23T03:33:17;97270.69;;;11.25;48.29
21300;BME280;10809;49.476;11.016;2024-03-23T03:35:48;97257.56;;;11.24;48.39
21300;BME280;10809;49.476;11.016;2024-03-23T03:38:21;97272.69;;;11.22;48.35
21300;BME280;10809;49.476;11.016;2024-03-23T03:40:51;97267.50;;;11.20;48.58
21300;BME280;10809;49.476;11.016;2024-03-23T03:43:23;97264.13;;;11.18;48.68
21300;BME280;10809;49.476;11.016;2024-03-23T03:45:54;97260.75;;;11.16;48.54
21300;BME280;10809;49.476;11.016;2024-03-23T03:48:25;97261.72;;;11.15;48.46
21300;BME280;10809;49.476;11.016;2024-03-23T03:50:55;97253.78;;;11.15;48.48
21300;BME280;10809;49.476;11.016;2024-03-23T03:53:26;97250.38;;;11.13;48.68
21300;BME280;10809;49.476;11.016;2024-03-23T03:56:00;97238.09;;;11.12;48.98
21300;BME280;10809;49.476;11.016;2024-03-23T03:58:30;97236.41;;;11.11;49.00
21300;BME280;10809;49.476;11.016;2024-03-23T04:01:01;97211.00;;;11.09;48.74
21300;BME280;10809;49.476;11.016;2024-03-23T04:03:31;97189.78;;;11.09;48.77
21300;BME280;10809;49.476;11.016;2024-03-23T04:06:02;97179.44;;;11.06;48.85
21300;BME280;10809;49.476;11.016;2024-03-23T04:08:33;97187.63;;;11.03;48.77
21300;BME280;10809;49.476;11.016;2024-03-23T04:11:03;97190.50;;;11.00;48.98
21300;BME280;10809;49.476;11.016;2024-03-23T04:13:34;97186.28;;;10.97;48.78
21300;BME280;10809;49.476;11.016;2024-03-23T04:16:05;97179.50;;;10.93;49.09
21300;BME280;10809;49.476;11.016;2024-03-23T04:18:35;97178.06;;;10.89;49.21
21300;BME280;10809;49.476;11.016;2024-03-23T04:21:06;97173.09;;;10.85;49.17
21300;BME280;10809;49.476;11.016;2024-03-23T04:23:37;97191.00;;;10.81;49.22
21300;BME280;10809;49.476;11.016;2024-03-23T04:26:07;97187.75;;;10.78;48.90
21300;BME280;10809;49.476;11.016;2024-03-23T04:28:38;97187.84;;;10.76;49.40
21300;BME280;10809;49.476;11.016;2024-03-23T04:31:09;97195.09;;;10.74;49.11
21300;BME280;10809;49.476;11.016;2024-03-23T04:33:39;97202.16;;;10.74;49.16
21300;BME280;10809;49.476;11.016;2024-03-23T04:36:10;97205.66;;;10.74;49.11
21300;BME280;10809;49.476;11.016;2024-03-23T04:38:40;97206.59;;;10.73;49.46
21300;BME280;10809;49.476;11.016;2024-03-23T04:41:11;97202.16;;;10.74;49.35
21300;BME280;10809;49.476;11.016;2024-03-23T04:43:42;97210.97;;;10.74;49.37
21300;BME280;10809;49.476;11.016;2024-03-23T04:46:12;97205.66;;;10.74;49.40
21300;BME280;10809;49.476;11.016;2024-03-23T04:48:43;97186.28;;;10.74;49.69
21300;BME280;10809;49.476;11.016;2024-03-23T04:51:21;97179.19;;;10.74;49.59
21300;BME280;10809;49.476;11.016;2024-03-23T04:53:52;97179.31;;;10.73;49.64
21300;BME280;10809;49.476;11.016;2024-03-23T04:56:25;97182.91;;;10.72;49.08
21300;BME280;10809;49.476;11.016;2024-03-23T04:58:56;97183.88;;;10.71;49.47
21300;BME280;10809;49.476;11.016;2024-03-23T05:01:31;97190.25;;;10.68;49.49
21300;BME280;10809;49.476;11.016;2024-03-23T05:04:02;97184.22;;;10.66;49.35
21300;BME280;10809;49.476;11.016;2024-03-23T05:06:33;97186.00;;;10.66;49.52
21300;BME280;10809;49.476;11.016;2024-03-23T05:09:04;97181.78;;;10.63;49.29
21300;BME280;10809;49.476;11.016;2024-03-23T05:11:38;97177.56;;;10.61;49.61
21300;BME280;10809;49.476;11.016;2024-03-23T05:14:09;97172.28;;;10.61;49.76
21300;BME280;10809;49.476;11.016;2024-03-23T05:16:39;97172.41;;;10.59;49.48
21300;BME280;10809;49.476;11.016;2024-03-23T05:19:10;97167.22;;;10.58;49.60
21300;BME280;10809;49.476;11.016;2024-03-23T05:21:40;97154.91;;;10.57;49.60
21300;BME280;10809;49.476;11.016;2024-03-23T05:24:11;97153.13;;;10.57;50.02
21300;BME280;10809;49.476;11.016;2024-03-23T05:26:42;97144.22;;;10.58;50.33
21300;BME280;10809;49.476;11.016;2024-03-23T05:29:12;97145.81;;;10.61;50.23
21300;BME280;10809;49.476;11.016;2024-03-23T05:31:43;97135.81;;;10.64;50.32
21300;BME280;10809;49.476;11.016;2024-03-23T05:34:14;97131.16;;;10.68;50.18
21300;BME280;10809;49.476;11.016;2024-03-23T05:36:44;97137.06;;;10.71;50.33
21300;BME280;10809;49.476;11.016;2024-03-23T05:39:15;97139.38;;;10.76;50.21
21300;BME280;10809;49.476;11.016;2024-03-23T05:41:46;97146.00;;;10.81;50.19
21300;BME280;10809;49.476;11.016;2024-03-23T05:44:20;97146.50;;;10.86;50.39
21300;BME280;10809;49.476;11.016;2024-03-23T05:46:50;97147.13;;;10.90;50.18
21300;BME280;10809;49.476;11.016;2024-03-23T05:49:21;97152.91;;;10.95;50.01
21300;BME280;10809;49.476;11.016;2024-03-23T05:51:51;97148.13;;;11.00;50.35
21300;BME280;10809;49.476;11.016;2024-03-23T05:54:22;97146.91;;;11.04;50.09
21300;BME280;10809;49.476;11.016;2024-03-23T05:56:55;97142.25;;;11.07;50.29
21300;BME280;10809;49.476;11.016;2024-03-23T05:59:26;97136.72;;;11.10;50.13
21300;BME280;10809;49.476;11.016;2024-03-23T06:01:57;97131.28;;;11.12;50.49
21300;BME280;10809;49.476;11.016;2024-03-23T06:04:27;97146.09;;;11.14;50.16
21300;BME280;10809;49.476;11.016;2024-03-23T06:06:58;97144.31;;;11.15;50.31
21300;BME280;10809;49.476;11.016;2024-03-23T06:09:28;97154.03;;;11.14;50.37
21300;BME280;10809;49.476;11.016;2024-03-23T06:12:01;97155.75;;;11.15;50.55
21300;BME280;10809;49.476;11.016;2024-03-23T06:14:32;97160.31;;;11.13;50.23
21300;BME280;10809;49.476;11.016;2024-03-23T06:17:03;97156.91;;;11.11;50.67
21300;BME280;10809;49.476;11.016;2024-03-23T06:19:33;97133.19;;;11.10;50.58
21300;BME280;10809;49.476;11.016;2024-03-23T06:22:04;97140.56;;;11.06;50.75
21300;BME280;10809;49.476;11.016;2024-03-23T06:24:36;97139.81;;;11.04;50.95
21300;BME280;10809;49.476;11.016;2024-03-23T06:27:07;97133.91;;;11.01;51.40
21300;BME280;10809;49.476;11.016;2024-03-23T06:29:37;97141.97;;;10.99;51.78
21300;BME280;10809;49.476;11.016;2024-03-23T06:32:08;97148.47;;;10.95;51.34
21300;BME280;10809;49.476;11.016;2024-03-23T06:34:41;97139.91;;;10.92;51.56
21300;BME280;10809;49.476;11.016;2024-03-23T06:37:12;97160.50;;;10.88;51.83
21300;BME280;10809;49.476;11.016;2024-03-23T06:39:42;97157.09;;;10.86;51.93
21300;BME280;10809;49.476;11.016;2024-03-23T06:42:13;97152.03;;;10.83;52.05
21300;BME280;10809;49.476;11.016;2024-03-23T06:44:43;97143.34;;;10.81;52.04
21300;BME280;10809;49.476;11.016;2024-03-23T06:47:14;97138.28;;;10.78;52.09
21300;BME280;10809;49.476;11.016;2024-03-23T06:49:44;97139.25;;;10.77;52.14
21300;BME280;10809;49.476;11.016;2024-03-23T06:52:15;97121.66;;;10.76;52.34
21300;BME280;10809;49.476;11.016;2024-03-23T06:54:45;97131.44;;;10.76;52.50
21300;BME280;10809;49.476;11.016;2024-03-23T06:57:16;97133.22;;;10.75;52.62
21300;BME280;10809;49.476;11.016;2024-03-23T06:59:46;97148.25;;;10.75;52.42
21300;BME280;10809;49.476;11.016;2024-03-23T07:02:17;97151.75;;;10.75;52.48
21300;BME280;10809;49.476;11.016;2024-03-23T07:04:47;97173.91;;;10.74;52.52
21300;BME280;10809;49.476;11.016;2024-03-23T07:07:17;97146.56;;;10.74;52.95
21300;BME280;10809;49.476;11.016;2024-03-23T07:09:48;97154.63;;;10.72;52.74
21300;BME280;10809;49.476;11.016;2024-03-23T07:12:18;97167.00;;;10.72;52.65
21300;BME280;10809;49.476;11.016;2024-03-23T07:14:49;97168.84;;;10.71;52.85
21300;BME280;10809;49.476;11.016;2024-03-23T07:17:19;97173.16;;;10.72;52.59
21300;BME280;10809;49.476;11.016;2024-03-23T07:19:50;97181.09;;;10.72;52.51
21300;BME280;10809;49.476;11.016;2024-03-23T07:22:23;97174.03;;;10.73;52.71
21300;BME280;10809;49.476;11.016;2024-03-23T07:24:54;97189.91;;;10.73;52.97
21300;BME280;10809;49.476;11.016;2024-03-23T07:27:24;97173.28;;;10.71;52.46
21300;BME280;10809;49.476;11.016;2024-03-23T07:29:56;97183.97;;;10.69;52.28
21300;BME280;10809;49.476;11.016;2024-03-23T07:32:26;97189.28;;;10.69;52.67
21300;BME280;10809;49.476;11.016;2024-03-23T07:34:57;97183.13;;;10.69;52.25
21300;BME280;10809;49.476;11.016;2024-03-23T07:37:28;97192.88;;;10.68;52.47
21300;BME280;10809;49.476;11.016;2024-03-23T07:40:05;97199.97;;;10.68;52.94
21300;BME280;10809;49.476;11.016;2024-03-23T07:42:36;97208.88;;;10.67;52.45
21300;BME280;10809;49.476;11.016;2024-03-23T07:45:07;97201.88;;;10.66;52.77
21300;BME280;10809;49.476;11.016;2024-03-23T07:47:39;97215.97;;;10.66;52.71
21300;BME280;10809;49.476;11.016;2024-03-23T07:50:16;97208.03;;;10.66;52.90
21300;BME280;10809;49.476;11.016;2024-03-23T07:52:46;97223.91;;;10.66;53.14
21300;BME280;10809;49.476;11.016;2024-03-23T07:55:16;97224.66;;;10.68;52.98
21300;BME280;10809;49.476;11.016;2024-03-23T07:57:47;97231.53;;;10.71;53.25
21300;BME280;10809;49.476;11.016;2024-03-23T08:00:18;97219.84;;;10.73;53.39
21300;BME280;10809;49.476;11.016;2024-03-23T08:02:51;97224.91;;;10.76;53.54
21300;BME280;10809;49.476;11.016;2024-03-23T08:05:21;97218.47;;;10.80;53.45
21300;BME280;10809;49.476;11.016;2024-03-23T08:07:55;97218.94;;;10.85;53.53
21300;BME280;10809;49.476;11.016;2024-03-23T08:10:25;97228.38;;;10.89;53.66
21300;BME280;10809;49.476;11.016;2024-03-23T08:12:56;97247.53;;;10.93;53.47
21300;BME280;10809;49.476;11.016;2024-03-23T08:15:26;97266.78;;;10.95;53.27
21300;BME280;10809;49.476;11.016;2024-03-23T08:17:57;97275.81;;;10.92;53.36
21300;BME280;10809;49.476;11.016;2024-03-23T08:20:27;97324.66;;;10.88;53.55
21300;BME280;10809;49.476;11.016;2024-03-23T08:22:58;97321.84;;;10.79;53.55
21300;BME280;10809;49.476;11.016;2024-03-23T08:25:30;97329.06;;;10.64;53.56
21300;BME280;10809;49.476;11.016;2024-03-23T08:28:01;97338.31;;;10.46;53.50
21300;BME280;10809;49.476;11.016;2024-03-23T08:30:31;97366.91;;;10.29;53.28
21300;BME280;10809;49.476;11.016;2024-03-23T08:33:02;97369.00;;;10.11;53.44
21300;BME280;10809;49.476;11.016;2024-03-23T08:35:32;97376.91;;;9.99;53.54
21300;BME280;10809;49.476;11.016;2024-03-23T08:38:04;97405.78;;;9.89;53.52
21300;BME280;10809;49.476;11.016;2024-03-23T08:40:35;97397.28;;;9.84;54.04
21300;BME280;10809;49.476;11.016;2024-03-23T08:43:05;97411.56;;;9.82;54.01
21300;BME280;10809;49.476;11.016;2024-03-23T08:45:36;97429.97;;;9.83;54.48
21300;BME280;10809;49.476;11.016;2024-03-23T08:48:06;97438.66;;;9.85;55.14
21300;BME280;10809;49.476;11.016;2024-03-23T08:50:37;97452.84;;;9.97;56.11
21300;BME280;10809;49.476;11.016;2024-03-23T08:53:08;97448.25;;;10.13;55.78
21300;BME280;10809;49.476;11.016;2024-03-23T08:55:38;97466.69;;;10.27;55.79
21300;BME280;10809;49.476;11.016;2024-03-23T08:58:09;97456.34;;;10.36;54.85
21300;BME280;10809;49.476;11.016;2024-03-23T09:00:40;97461.22;;;10.42;54.58
21300;BME280;10809;49.476;11.016;2024-03-23T09:03:10;97477.84;;;10.44;53.97
21300;BME280;10809;49.476;11.016;2024-03-23T09:05:41;97481.31;;;10.45;53.83
21300;BME280;10809;49.476;11.016;2024-03-23T09:08:12;97484.16;;;10.42;53.43
21300;BME280;10809;49.476;11.016;2024-03-23T09:10:43;97483.66;;;10.37;53.27
21300;BME280;10809;49.476;11.016;2024-03-23T09:13:13;97494.50;;;10.32;53.55
21300;BME280;10809;49.476;11.016;2024-03-23T09:15:53;97493.69;;;10.32;53.39
21300;BME280;10809;49.476;11.016;2024-03-23T09:18:26;97526.47;;;10.29;53.21
21300;BME280;10809;49.476;11.016;2024-03-23T09:20:57;97531.25;;;10.24;52.99
21300;BME280;10809;49.476;11.016;2024-03-23T09:23:28;97528.91;;;10.20;52.81
21300;BME280;10809;49.476;11.016;2024-03-23T09:26:03;97536.38;;;10.13;52.63
21300;BME280;10809;49.476;11.016;2024-03-23T09:28:33;97543.78;;;10.08;52.91
21300;BME280;10809;49.476;11.016;2024-03-23T09:31:08;97527.38;;;10.03;52.65
21300;BME280;10809;49.476;11.016;2024-03-23T09:33:39;97538.16;;;10.00;52.55
21300;BME280;10809;49.476;11.016;2024-03-23T09:36:10;97544.75;;;9.93;52.61
21300;BME280;10809;49.476;11.016;2024-03-23T09:38:41;97550.22;;;9.90;52.58
21300;BME280;10809;49.476;11.016;2024-03-23T09:41:11;97547.78;;;9.87;52.93
21300;BME280;10809;49.476;11.016;2024-03-23T09:43:42;97556.47;;;9.89;52.73
21300;BME280;10809;49.476;11.016;2024-03-23T09:46:13;97561.88;;;9.88;52.48
21300;BME280;10809;49.476;11.016;2024-03-23T09:48:43;97559.13;;;9.89;53.08
21300;BME280;10809;49.476;11.016;2024-03-23T09:51:16;97568.53;;;9.93;52.67
21300;BME280;10809;49.476;11.016;2024-03-23T09:53:47;97566.47;;;9.98;52.73
21300;BME280;10809;49.476;11.016;2024-03-23T09:56:18;97563.44;;;10.04;52.46
21300;BME280;10809;49.476;11.016;2024-03-23T09:58:49;97552.66;;;10.07;52.87
21300;BME280;10809;49.476;11.016;2024-03-23T10:01:19;97570.00;;;10.11;52.57
21300;BME280;10809;49.476;11.016;2024-03-23T10:03:50;97578.72;;;10.13;52.13
21300;BME280;10809;49.476;11.016;2024-03-23T10:06:24;97584.00;;;10.13;51.75
21300;BME280;10809;49.476;11.016;2024-03-23T10:08:57;97598.19;;;10.12;51.77
21300;BME280;10809;49.476;11.016;2024-03-23T10:11:28;97597.44;;;10.10;51.75
21300;BME280;10809;49.476;11.016;2024-03-23T10:13:59;97598.38;;;10.09;51.32
21300;BME280;10809;49.476;11.016;2024-03-23T10:16:30;97608.31;;;10.06;51.52
21300;BME280;10809;49.476;11.016;2024-03-23T10:19:00;97621.81;;;10.01;51.21
21300;BME280;10809;49.476;11.016;2024-03-23T10:21:30;97618.47;;;9.98;51.04
21300;BME280;10809;49.476;11.016;2024-03-23T10:24:08;97600.28;;;9.93;51.00
21300;BME280;10809;49.476;11.016;2024-03-23T10:26:39;97589.88;;;9.90;51.34
21300;BME280;10809;49.476;11.016;2024-03-23T10:29:09;97609.25;;;9.91;51.16
21300;BME280;10809;49.476;11.016;2024-03-23T10:31:42;97615.41;;;9.91;51.23
21300;BME280;10809;49.476;11.016;2024-03-23T10:34:12;97619.63;;;9.94;51.17
21300;BME280;10809;49.476;11.016;2024-03-23T10:36:43;97595.75;;;9.95;51.64
21300;BME280;10809;49.476;11.016;2024-03-23T10:39:15;97636.00;;;10.00;51.88
21300;BME280;10809;49.476;11.016;2024-03-23T10:41:49;97621.44;;;10.07;51.61
21300;BME280;10809;49.476;11.016;2024-03-23T10:44:21;97622.81;;;10.13;51.29
21300;BME280;10809;49.476;11.016;2024-03-23T10:46:55;97633.19;;;10.16;50.67
21300;BME280;10809;49.476;11.016;2024-03-23T10:49:34;97612.91;;;10.16;50.95
21300;BME280;10809;49.476;11.016;2024-03-23T10:52:05;97616.41;;;10.17;50.76
21300;BME280;10809;49.476;11.016;2024-03-23T10:54:37;97620.72;;;10.18;50.50
21300;BME280;10809;49.476;11.016;2024-03-23T10:57:15;97625.16;;;10.17;50.54
21300;BME280;10809;49.476;11.016;2024-03-23T10:59:50;97648.78;;;10.20;50.38
21300;BME280;10809;49.476;11.016;2024-03-23T11:02:21;97649.84;;;10.18;50.42
21300;BME280;10809;49.476;11.016;2024-03-23T11:04:52;97642.00;;;10.16;50.24
21300;BME280;10809;49.476;11.016;2024-03-23T11:07:32;97627.09;;;10.15;50.44
21300;BME280;10809;49.476;11.016;2024-03-23T11:10:30;97619.97;;;10.16;50.06
21300;BME280;10809;49.476;11.016;2024-03-23T11:13:21;97624.97;;;10.20;50.54
21300;BME280;10809;49.476;11.016;2024-03-23T11:15:52;97624.56;;;10.26;51.24
21300;BME280;10809;49.476;11.016;2024-03-23T11:18:22;97638.25;;;10.33;50.46
21300;BME280;10809;49.476;11.016;2024-03-23T11:20:53;97646.66;;;10.39;49.90
21300;BME280;10809;49.476;11.016;2024-03-23T11:23:27;97632.16;;;10.45;49.97
21300;BME280;10809;49.476;11.016;2024-03-23T11:25:59;97630.06;;;10.50;50.04
21300;BME280;10809;49.476;11.016;2024-03-23T11:28:30;97642.13;;;10.54;49.72
21300;BME280;10809;49.476;11.016;2024-03-23T11:31:00;97646.59;;;10.53;49.05
21300;BME280;10809;49.476;11.016;2024-03-23T11:33:31;97651.13;;;10.51;49.06
21300;BME280;10809;49.476;11.016;2024-03-23T11:36:02;97645.19;;;10.48;48.79
21300;BME280;10809;49.476;11.016;2024-03-23T11:38:36;97660.63;;;10.41;48.55
21300;BME280;10809;49.476;11.016;2024-03-23T11:41:07;97658.41;;;10.35;48.53
21300;BME280;10809;49.476;11.016;2024-03-23T11:43:37;97652.53;;;10.30;48.60
21300;BME280;10809;49.476;11.016;2024-03-23T11:46:07;97654.53;;;10.27;49.07
21300;BME280;10809;49.476;11.016;2024-03-23T11:48:38;97669.44;;;10.28;49.45
21300;BME280;10809;49.476;11.016;2024-03-23T11:51:09;97665.66;;;10.32;49.21
21300;BME280;10809;49.476;11.016;2024-03-23T11:53:39;97677.66;;;10.37;49.11
21300;BME280;10809;49.476;11.016;2024-03-23T11:56:10;97673.00;;;10.41;49.17
21300;BME280;10809;49.476;11.016;2024-03-23T11:58:41;97668.47;;;10.43;48.61
21300;BME280;10809;49.476;11.016;2024-03-23T12:01:11;97649.84;;;10.44;48.58
21300;BME280;10809;49.476;11.016;2024-03-23T12:03:43;97653.44;;;10.43;48.58
21300;BME280;10809;49.476;11.016;2024-03-23T12:06:21;97647.22;;;10.44;48.75
21300;BME280;10809;49.476;11.016;2024-03-23T12:08:51;97644.25;;;10.49;49.13
21300;BME280;10809;49.476;11.016;2024-03-23T12:11:23;97645.53;;;10.56;48.83
21300;BME280;10809;49.476;11.016;2024-03-23T12:13:59;97634.25;;;10.66;49.05
21300;BME280;10809;49.476;11.016;2024-03-23T12:16:30;97642.22;;;10.79;49.38
21300;BME280;10809;49.476;11.016;2024-03-23T12:19:05;97640.53;;;10.90;48.88
21300;BME280;10809;49.476;11.016;2024-03-23T12:21:36;97637.91;;;11.03;48.85
21300;BME280;10809;49.476;11.016;2024-03-23T12:24:06;97639.06;;;11.11;48.48
21300;BME280;10809;49.476;11.016;2024-03-23T12:26:37;97643.13;;;11.17;48.32
21300;BME280;10809;49.476;11.016;2024-03-23T12:29:13;97640.06;;;11.23;48.18
21300;BME280;10809;49.476;11.016;2024-03-23T12:31:43;97633.59;;;11.27;47.97
21300;BME280;10809;49.476;11.016;2024-03-23T12:34:14;97634.97;;;11.32;48.21
21300;BME280;10809;49.476;11.016;2024-03-23T12:36:44;97630.97;;;11.40;48.23
21300;BME280;10809;49.476;11.016;2024-03-23T12:39:15;97610.91;;;11.48;48.05
21300;BME280;10809;49.476;11.016;2024-03-23T12:41:45;97615.56;;;11.57;47.87
21300;BME280;10809;49.476;11.016;2024-03-23T12:44:16;97611.44;;;11.66;48.20
21300;BME280;10809;49.476;11.016;2024-03-23T12:46:46;97600.88;;;11.77;48.08
21300;BME280;10809;49.476;11.016;2024-03-23T12:49:17;97603.63;;;11.88;48.44
21300;BME280;10809;49.476;11.016;2024-03-23T12:51:56;97613.34;;;12.00;47.90
21300;BME280;10809;49.476;11.016;2024-03-23T12:54:33;97597.50;;;12.11;47.86
21300;BME280;10809;49.476;11.016;2024-03-23T12:57:04;97601.06;;;12.22;47.40
21300;BME280;10809;49.476;11.016;2024-03-23T12:59:34;97606.53;;;12.32;47.50
21300;BME280;10809;49.476;11.016;2024-03-23T13:02:05;97593.59;;;12.40;47.26
21300;BME280;10809;49.476;11.016;2024-03-23T13:04:37;97586.84;;;12.47;47.32
21300;BME280;10809;49.476;11.016;2024-03-23T13:07:07;97589.06;;;12.53;46.85
21300;BME280;10809;49.476;11.016;2024-03-23T13:09:38;97602.97;;;12.56;46.13
21300;BME280;10809;49.476;11.016;2024-03-23T13:12:08;97587.88;;;12.57;45.60
21300;BME280;10809;49.476;11.016;2024-03-23T13:14:39;97590.88;;;12.52;45.35
21300;BME280;10809;49.476;11.016;2024-03-23T13:17:09;97603.75;;;12.46;45.00
21300;BME280;10809;49.476;11.016;2024-03-23T13:19:40;97595.69;;;12.35;44.62
21300;BME280;10809;49.476;11.016;2024-03-23T13:22:11;97593.09;;;12.22;44.58
21300;BME280;10809;49.476;11.016;2024-03-23T13:24:41;97593.16;;;12.10;44.71
21300;BME280;10809;49.476;11.016;2024-03-23T13:27:13;97588.53;;;12.01;44.18
21300;BME280;10809;49.476;11.016;2024-03-23T13:29:43;97601.72;;;11.90;44.61
21300;BME280;10809;49.476;11.016;2024-03-23T13:32:16;97590.81;;;11.82;45.20
21300;BME280;10809;49.476;11.016;2024-03-23T13:34:46;97594.66;;;11.78;45.30
21300;BME280;10809;49.476;11.016;2024-03-23T13:37:20;97590.28;;;11.77;45.50
21300;BME280;10809;49.476;11.016;2024-03-23T13:39:51;97597.28;;;11.78;45.16
21300;BME280;10809;49.476;11.016;2024-03-23T13:42:21;97605.75;;;11.83;45.48
21300;BME280;10809;49.476;11.016;2024-03-23T13:44:55;97596.63;;;11.87;44.58
21300;BME280;10809;49.476;11.016;2024-03-23T13:47:25;97587.47;;;11.91;45.13
21300;BME280;10809;49.476;11.016;2024-03-23T13:49:56;97590.03;;;11.92;45.01
21300;BME280;10809;49.476;11.016;2024-03-23T13:52:26;97585.56;;;11.93;44.14
21300;BME280;10809;49.476;11.016;2024-03-23T13:54:57;97583.91;;;11.92;44.31
21300;BME280;10809;49.476;11.016;2024-03-23T13:57:28;97584.00;;;11.90;44.48
21300;BME280;10809;49.476;11.016;2024-03-23T13:59:58;97568.16;;;11.89;44.41
21300;BME280;10809;49.476;11.016;2024-03-23T14:02:29;97562.88;;;11.89;44.20
21300;BME280;10809;49.476;11.016;2024-03-23T14:05:01;97585.81;;;11.90;44.43